createdAt,value
2023-05-08T00:26:25.350Z,100.00
2023-05-08T00:41:17.443Z,100.00
2023-05-08T00:56:10.399Z,100.00
2023-05-08T01:11:23.814Z,100.00
2023-05-08T01:26:38.863Z,100.00
2023-05-08T01:41:36.328Z,100.00
2023-05-08T01:56:32.162Z,100.00
2023-05-08T02:26:37.159Z,100.00
2023-05-08T02:41:28.840Z,100.00
2023-05-08T03:11:28.377Z,100.00
2023-05-08T03:26:21.173Z,100.00
2023-05-08T03:41:13.343Z,100.00
2023-05-08T03:56:06.597Z,100.00
2023-05-08T04:25:52.508Z,100.00
2023-05-08T05:10:30.302Z,100.00
2023-05-08T05:25:22.895Z,100.00
2023-05-08T05:40:15.528Z,100.00
2023-05-08T05:55:08.374Z,100.00
2023-05-08T06:10:02.568Z,100.00
2023-05-08T06:39:50.514Z,100.00
2023-05-08T07:39:19.578Z,100.00
2023-05-08T07:54:12.435Z,100.00
2023-05-08T08:09:06.354Z,92.06
2023-05-08T08:23:58.890Z,92.17
2023-05-08T08:38:51.925Z,94.66
2023-05-08T08:53:44.887Z,94.62
2023-05-08T09:08:37.741Z,95.74
2023-05-08T09:23:31.500Z,94.27
2023-05-08T09:38:32.703Z,93.29
2023-05-08T09:53:32.960Z,89.95
2023-05-08T10:08:27.110Z,90.17
2023-05-08T10:23:19.329Z,91.80
2023-05-08T10:38:11.814Z,93.09
2023-05-08T10:53:24.894Z,92.36
2023-05-08T11:08:25.928Z,93.51
2023-05-08T11:23:26.306Z,93.24
2023-05-08T11:38:25.393Z,95.52
2023-05-08T11:53:20.000Z,94.46
2023-05-08T12:08:12.548Z,93.20
2023-05-08T12:23:05.457Z,91.75
2023-05-08T12:38:00.810Z,92.85
2023-05-08T12:53:03.995Z,84.80
2023-05-08T13:07:59.807Z,83.61
2023-05-08T13:22:51.938Z,79.64
2023-05-08T13:37:43.642Z,82.29
2023-05-08T13:52:36.268Z,80.94
2023-05-08T14:07:29.680Z,79.18
2023-05-08T14:22:20.981Z,79.40
2023-05-08T14:37:13.911Z,75.74
2023-05-08T14:52:06.069Z,75.55
2023-05-08T15:06:58.193Z,73.48
2023-05-08T15:21:51.210Z,71.74
2023-05-08T15:36:43.040Z,70.86
2023-05-08T15:51:34.562Z,72.12
2023-05-08T16:06:27.083Z,74.83
2023-05-08T16:21:18.594Z,74.94
2023-05-08T16:36:10.746Z,75.49
2023-05-08T16:51:04.070Z,76.90
2023-05-08T17:05:57.048Z,78.08
2023-05-08T17:20:47.496Z,79.73
2023-05-08T18:05:20.442Z,81.76
2023-05-08T18:20:13.290Z,82.66
2023-05-08T18:35:05.720Z,83.17
2023-05-08T18:49:59.860Z,84.11
2023-05-08T19:49:29.188Z,85.89
2023-05-08T20:19:15.310Z,88.16
2023-05-08T20:34:06.807Z,87.72
2023-05-08T20:49:00.971Z,89.32
2023-05-08T21:03:55.762Z,90.52
2023-05-08T21:18:47.244Z,90.72
2023-05-08T21:33:39.363Z,90.81
2023-05-08T21:48:31.535Z,90.66
2023-05-08T22:03:23.323Z,91.44
2023-05-08T22:18:15.748Z,92.57
2023-05-08T22:33:07.946Z,92.95
2023-05-08T22:48:00.510Z,94.87
2023-05-08T23:02:52.192Z,96.46
2023-05-08T23:17:44.326Z,97.73
2023-05-08T23:32:36.481Z,98.36
2023-05-08T23:47:28.168Z,99.34
